Latest Coastal Weather Observations for Cape Ferguson

IDQ60701

Issued at 9:22 am EST Sunday 19 May 2024 (issued every 10 minutes, with the page automatically refreshed every 10 minutes)

About coastal observations | Map of coastal stations | Coastal observations for QLD | Marine services | Other Formats
Station Details ID: 032182 Name: CAPE FERGUSON NTC AWS Lat: -19.28 Lon: 147.06 Height: 0.0 m
Data from the previous 72 hours. | See also: Recent months for locations in Queensland
Date/Time
EST
Wind Sea
Height
m
Swell Vis
km
Cloud Weather Temp
°C
Press
MSL
hPa
Rain since
9am
mm
Dir  Spd
kts
Gust
kts
Height
m
Period
s
Dir
19/09:00am S 16 19 - - - - - - - 20.6 1016.8 -
19/08:30am S 17 21 - - - - - - - 20.7 1016.4 -
19/08:00am S 18 22 - - - - - - - 20.6 1016.1 -
19/07:30am S 18 23 - - - - - - - 21.0 1015.8 -
19/07:00am S 19 24 - - - - - - - 21.1 1015.4 -
19/06:30am S 18 23 - - - - - - - 21.4 1014.9 -
19/06:00am S 16 20 - - - - - - - 21.6 1014.5 -
19/05:30am S 12 16 - - - - - - - 22.4 1014.4 -
19/05:00am S 9 12 - - - - - - - 22.3 1014.1 -
19/04:30am SW 4 7 - - - - - - - 21.9 1013.8 -
19/04:00am W 4 5 - - - - - - - 21.5 1013.6 -
19/03:30am WNW 2 3 - - - - - - - 20.9 1013.5 -
19/03:00am WNW 3 5 - - - - - - - 19.6 1013.5 -
19/02:30am WNW 2 3 - - - - - - - 20.1 1013.8 -
19/02:00am WNW 2 3 - - - - - - - 20.1 1014.1 -
19/01:30am WNW 4 4 - - - - - - - 20.0 1014.2 -
19/01:00am WNW 3 5 - - - - - - - 20.4 1014.2 -
19/12:30am WNW 2 3 - - - - - - - 21.4 1014.5 -
19/12:00am WNW 3 3 - - - - - - - 21.7 1014.6 -
 
Date/Time
EST
Wind Sea
Height
m
Swell Vis
km
Cloud Weather Temp
°C
Press
MSL
hPa
Rain since
9am
mm
Dir  Spd
kts
Gust
kts
Height
m
Period
s
Dir
18/11:30pm WNW 3 4 - - - - - - - 22.2 1014.9 -
18/11:00pm WNW 3 4 - - - - - - - 21.4 1015.1 -
18/10:30pm WNW 3 3 - - - - - - - 22.5 1015.4 -
18/10:00pm NW 3 4 - - - - - - - 22.1 1015.5 -
18/09:30pm W 2 3 - - - - - - - 21.8 1015.4 -
18/09:00pm E 4 5 - - - - - - - 24.7 1015.4 -
18/08:30pm E 5 6 - - - - - - - 24.8 1015.3 -
18/08:00pm E 5 7 - - - - - - - 24.6 1015.1 -
18/07:30pm E 6 7 - - - - - - - 24.6 1014.8 -
18/07:00pm E 8 10 - - - - - - - 24.8 1014.5 -
18/06:30pm ENE 8 9 - - - - - - - 24.7 1014.2 -
18/06:00pm ENE 9 11 - - - - - - - 24.6 1013.8 -
18/05:30pm ENE 8 9 - - - - - - - 24.5 1013.5 -
18/05:00pm ENE 9 10 - - - - - - - 24.5 1013.5 -
18/04:30pm ENE 9 11 - - - - - - - 24.6 1013.2 -
18/04:00pm ENE 8 9 - - - - - - - 24.6 1013.0 -
18/03:30pm ENE 8 11 - - - - - - - 24.7 1013.1 -
18/03:00pm NE 6 10 - - - - - - - 24.6 1013.1 -
18/02:30pm ENE 5 9 - - - - - - - 24.8 1013.3 -
18/02:00pm ENE 5 9 - - - - - - - 24.7 1013.7 -
18/01:30pm ENE 8 10 - - - - - - - 24.4 1014.1 -
18/01:00pm ENE 4 7 - - - - - - - 25.0 1014.5 -
18/12:30pm ENE 5 5 - - - - - - - 24.7 1015.3 -
18/12:00pm ESE 5 6 - - - - - - - 24.5 1015.8 -
18/11:30am SE 8 10 - - - - - - - 24.3 1016.2 -
18/11:00am SE 7 10 - - - - - - - 23.9 1016.5 -
18/10:30am SSE 10 12 - - - - - - - 23.4 1016.8 -
18/10:00am SSE 10 14 - - - - - - - 23.2 1017.2 -
18/09:30am SSE 10 13 - - - - - - - 22.8 1017.3 -
18/09:00am SSE 10 12 - - - - - - - 22.5 1017.3 -
18/08:30am S 12 15 - - - - - - - 22.3 1016.9 -
18/08:00am S 10 14 - - - - - - - 22.2 1016.8 -
18/07:30am SW 6 8 - - - - - - - 21.6 1016.5 -
18/07:00am S 10 14 - - - - - - - 21.2 1016.3 -
18/06:30am SSE 9 11 - - - - - - - 22.4 1016.1 -
18/06:00am SSE 10 13 - - - - - - - 22.7 1015.9 -
18/05:30am SSE 11 13 - - - - - - - 22.5 1015.6 -
18/05:00am SSE 11 13 - - - - - - - 22.6 1015.3 -
18/04:30am S 11 13 - - - - - - - 22.5 1015.1 -
18/04:00am SSE 10 14 - - - - - - - 22.8 1015.2 -
18/03:30am S 9 11 - - - - - - - 22.6 1014.9 -
18/03:00am S 11 13 - - - - - - - 22.6 1015.0 -
18/02:30am SSE 11 13 - - - - - - - 22.8 1015.3 -
18/02:00am SSE 10 12 - - - - - - - 22.8 1015.6 -
18/01:30am SSE 9 12 - - - - - - - 23.1 1015.8 -
18/01:00am SSE 9 10 - - - - - - - 23.4 1016.2 -
18/12:30am S 7 10 - - - - - - - 23.8 1016.3 -
18/12:00am SSE 9 11 - - - - - - - 23.9 1016.6 -
 
Date/Time
EST
Wind Sea
Height
m
Swell Vis
km
Cloud Weather Temp
°C
Press
MSL
hPa
Rain since
9am
mm
Dir  Spd
kts
Gust
kts
Height
m
Period
s
Dir
17/11:30pm SE 7 10 - - - - - - - 24.0 1016.9 -
17/11:00pm SE 7 9 - - - - - - - 24.0 1017.1 -
17/10:30pm SSE 8 10 - - - - - - - 24.2 1017.2 -
17/10:00pm SSE 7 10 - - - - - - - 24.3 1017.3 -
17/09:30pm SSE 6 8 - - - - - - - 24.3 1017.5 -
17/09:00pm SE 9 13 - - - - - - - 24.5 1017.4 -
17/08:30pm ESE 11 14 - - - - - - - 24.8 1017.2 -
17/08:00pm ESE 13 15 - - - - - - - 24.9 1017.0 -
17/07:30pm ESE 11 14 - - - - - - - 25.0 1016.7 -
17/07:00pm ESE 9 11 - - - - - - - 24.9 1016.3 -
17/06:30pm ESE 10 13 - - - - - - - 24.9 1016.1 -
17/06:00pm E 10 12 - - - - - - - 24.9 1016.0 -
17/05:30pm E 12 14 - - - - - - - 25.0 1015.6 -
17/05:00pm E 11 13 - - - - - - - 24.9 1015.4 -
17/04:30pm E 11 14 - - - - - - - 24.9 1015.4 -
17/04:00pm E 12 14 - - - - - - - 24.8 1015.2 -
17/03:30pm E 12 14 - - - - - - - 24.8 1015.2 -
17/03:00pm E 13 15 - - - - - - - 24.6 1015.3 -
17/02:30pm E 14 17 - - - - - - - 24.4 1015.5 -
17/02:00pm E 15 18 - - - - - - - 24.6 1015.6 -
17/01:30pm E 13 16 - - - - - - - 24.6 1015.9 -
17/01:00pm E 11 12 - - - - - - - 24.7 1016.1 -
17/12:30pm E 9 10 - - - - - - - 24.3 1016.8 -
17/12:00pm ESE 8 10 - - - - - - - 24.3 1017.2 -
17/11:30am SE 9 11 - - - - - - - 24.3 1017.8 -
17/11:00am SE 9 11 - - - - - - - 24.0 1018.2 -
17/10:30am SSE 10 12 - - - - - - - 23.4 1018.4 -
17/10:00am SSE 10 12 - - - - - - - 23.2 1018.6 -
17/09:30am SSE 13 15 - - - - - - - 22.8 1018.9 -
17/09:00am SSE 13 17 - - - - - - - 22.6 1019.0 -
17/08:30am SSE 11 15 - - - - - - - 22.6 1018.7 -
17/08:00am SSE 10 13 - - - - - - - 22.4 1018.6 -
17/07:30am SSE 10 12 - - - - - - - 22.4 1018.2 -
17/07:00am SSE 12 14 - - - - - - - 22.4 1017.8 -
17/06:30am SSE 12 15 - - - - - - - 22.5 1017.6 -
17/06:00am SSE 13 16 - - - - - - - 22.2 1017.3 -
17/05:30am SSE 13 16 - - - - - - - 22.2 1017.3 -
17/05:00am SSE 13 17 - - - - - - - 22.3 1017.1 -
17/04:30am SSE 11 14 - - - - - - - 22.5 1017.2 -
17/04:00am SSE 12 14 - - - - - - - 22.5 1017.2 -
17/03:30am SSE 13 17 - - - - - - - 22.3 1017.2 -
17/03:00am S 11 14 - - - - - - - 22.3 1017.3 -
17/02:30am SSE 12 15 - - - - - - - 22.2 1017.5 -
17/02:00am SSE 11 13 - - - - - - - 22.5 1017.8 -
17/01:30am SSE 11 13 - - - - - - - 22.5 1017.9 -
17/01:00am SSE 11 15 - - - - - - - 22.7 1017.9 -
17/12:30am SSE 10 13 - - - - - - - 22.9 1018.1 -
17/12:00am SSE 10 12 - - - - - - - 23.1 1018.3 -
 
Date/Time
EST
Wind Sea
Height
m
Swell Vis
km
Cloud Weather Temp
°C
Press
MSL
hPa
Rain since
9am
mm
Dir  Spd
kts
Gust
kts
Height
m
Period
s
Dir
16/11:30pm SSE 10 12 - - - - - - - 23.4 1018.7 -
16/11:00pm SSE 11 14 - - - - - - - 23.9 1018.9 -
16/10:30pm SSE 10 12 - - - - - - - 23.8 1019.1 -
16/10:00pm SSE 8 10 - - - - - - - 23.9 1019.1 -
16/09:30pm ESE 16 20 - - - - - - - 25.0 1019.5 -
16/09:00pm ESE 14 17 - - - - - - - 25.0 1019.5 -
16/08:30pm ESE 16 21 - - - - - - - 25.1 1019.4 -
16/08:00pm E 15 19 - - - - - - - 25.1 1019.3 -
16/07:30pm E 14 16 - - - - - - - 25.2 1018.9 -
16/07:00pm E 15 17 - - - - - - - 25.2 1018.8 -
16/06:30pm E 13 16 - - - - - - - 25.4 1018.4 -
16/06:00pm E 13 16 - - - - - - - 25.3 1018.2 -
16/05:30pm E 13 17 - - - - - - - 25.4 1017.8 -
16/05:00pm E 14 19 - - - - - - - 25.4 1017.4 -
16/04:30pm E 17 19 - - - - - - - 25.4 1017.4 -
16/04:00pm E 14 17 - - - - - - - 25.2 1017.2 -
16/03:30pm E 13 16 - - - - - - - 25.1 1017.1 -
16/03:00pm E 14 18 - - - - - - - 25.2 1017.2 -
16/02:30pm E 16 19 - - - - - - - 25.2 1017.5 -
16/02:00pm E 16 19 - - - - - - - 25.3 1017.7 -
16/01:30pm E 15 18 - - - - - - - 25.4 1017.9 -
16/01:00pm E 16 19 - - - - - - - 25.3 1018.4 -
16/12:30pm ESE 11 14 - - - - - - - 25.4 1018.5 -
16/12:00pm ESE 11 14 - - - - - - - 25.4 1019.0 -
16/11:30am SE 13 15 - - - - - - - 25.0 1019.3 -
16/11:00am SE 12 15 - - - - - - - 24.9 1019.8 -
16/10:30am SE 12 15 - - - - - - - 24.4 1020.2 -
16/10:00am SSE 12 15 - - - - - - - 24.2 1020.2 -
16/09:30am SSE 12 14 - - - - - - - 23.8 1020.3 -

Other formats

Comma delimited format used in spreadsheet applications
http://www.bom.gov.au/fwo/IDQ60701/IDQ60701.94297.axf

JavaScript Object Notation format (JSON) in row-major order
http://www.bom.gov.au/fwo/IDQ60701/IDQ60701.94297.json

Data quality

Most of these data are generated automatically and are frequently updated. Quality checks on data are not normally performed. It is possible for incorrect values to appear. Refer to information at About Latest Weather Observations and please check the disclaimer before using these data.